FQMA/MPM METAR and TAF weather

Enter ICAO airport designator
Station Type Date Time Source
FQMA METAR 2021/01/20 23:00 UTC NOAA

FQMA 202300Z 20012KT 9999 SCT020 25/21 Q1016 NOSIG


Station Type Date Time Source
FQMA Decoded METAR 2021/01/20 23:00 UTC NOAA

Maputo / Mavalane, Mozambique (FQMA) 25-55S 032-34E 44M
Jan 20, 2021 - 06:00 PM EST / 2021.01.20 2300 UTC
Wind: from the SSW (200 degrees) at 14 MPH (12 KT):0
Visibility: greater than 7 mile(s):0
Sky conditions: partly cloudy
Temperature: 77 F (25 C)
Dew Point: 69 F (21 C)
Relative Humidity: 78%
Pressure (altimeter): 30.00 in. Hg (1016 hPa)
ob: FQMA 202300Z 20012KT 9999 SCT020 25/21 Q1016 NOSIG
cycle: 23

Station Type Date Time Source
FQMA TAF 2021/01/20 18:21 UTC NOAA

TAF FQMA 201600Z 2018/2124 19012KT 9999 FEW020 TX33/2113Z TN24/2104Z
BECMG 2106/2108 13011KT

Example: see airport list